Weather at Orlando International Airport

Public forecast

Using degrees Fahrenheit for public forecast. Weather courtesy of forecast.io.

Current aviation weather report (METAR) for Orlando International Airport

2022/11/30 10:53 (retrieved 1 hour ago)

KMCO 301053Z 16003KT 10SM FEW250 18/17 A3007 RMK AO2 SLP181 T01830172

Aviation forecast (TAF) for Orlando International Airport

2022/11/30 09:00 Ammendment (retrieved 3 hours ago)

TAF AMD KMCO 300859Z 3009/0112 VRB03KT P6SM FEW250 FM301500 18007KT P6SM SCT035 FM301800 25008KT P6SM SCT050 BKN250 FM010000 VRB03KT P6SM FEW030 SCT250 FM010600 34007KT P6SM OVC015